createdAt,value
2023-05-09T00:00:50.071Z,14.23
2023-05-09T00:03:16.939Z,14.23
2023-05-09T00:05:43.923Z,14.19
2023-05-09T00:08:11.095Z,14.25
2023-05-09T00:10:37.938Z,14.22
2023-05-09T00:13:04.809Z,14.22
2023-05-09T00:15:31.955Z,14.12
2023-05-09T00:17:59.453Z,14.07
2023-05-09T00:20:26.448Z,14.18
2023-05-09T00:22:53.297Z,14.10
2023-05-09T00:25:20.342Z,14.13
2023-05-09T00:27:47.243Z,14.12
2023-05-09T00:30:14.216Z,14.10
2023-05-09T00:32:41.653Z,13.94
2023-05-09T00:35:10.202Z,14.01
2023-05-09T00:37:37.223Z,13.99
2023-05-09T00:40:06.258Z,13.98
2023-05-09T00:42:33.539Z,13.88
2023-05-09T00:45:00.514Z,14.02
2023-05-09T00:47:29.027Z,13.98
2023-05-09T00:49:58.006Z,14.00
2023-05-09T00:52:26.232Z,13.85
2023-05-09T00:54:54.347Z,13.88
2023-05-09T00:57:22.198Z,13.87
2023-05-09T00:59:50.133Z,13.95
2023-05-09T01:02:18.312Z,13.97
2023-05-09T01:04:48.518Z,13.97
2023-05-09T01:07:49.233Z,13.94
2023-05-09T01:10:35.774Z,14.06
2023-05-09T01:13:32.255Z,14.12
2023-05-09T01:16:18.325Z,14.13
2023-05-09T01:18:57.339Z,14.07
2023-05-09T01:21:30.048Z,14.13
2023-05-09T01:24:32.638Z,14.17
2023-05-09T01:27:33.229Z,14.09
2023-05-09T01:30:04.119Z,14.13
2023-05-09T01:32:32.548Z,14.08
2023-05-09T01:35:06.022Z,14.12
2023-05-09T01:37:36.094Z,14.13
2023-05-09T01:40:15.251Z,14.09
2023-05-09T01:42:47.733Z,14.08
2023-05-09T01:45:15.921Z,14.04
2023-05-09T01:47:43.925Z,13.98
2023-05-09T01:50:12.710Z,13.99
2023-05-09T01:52:41.298Z,13.83
2023-05-09T01:55:10.668Z,13.78
2023-05-09T01:57:38.557Z,13.74
2023-05-09T02:00:08.061Z,13.69
2023-05-09T02:02:36.053Z,13.59
2023-05-09T02:05:03.471Z,13.53
2023-05-09T02:07:31.216Z,13.44
2023-05-09T02:09:59.849Z,13.51
2023-05-09T02:12:27.088Z,13.48
2023-05-09T02:14:54.034Z,13.42
2023-05-09T02:17:21.594Z,13.42
2023-05-09T02:19:48.470Z,13.38
2023-05-09T02:22:15.773Z,13.36
2023-05-09T02:24:45.149Z,13.34
2023-05-09T02:27:12.952Z,13.25
2023-05-09T02:29:46.114Z,13.20
2023-05-09T02:32:17.470Z,13.20
2023-05-09T02:34:46.141Z,13.07
2023-05-09T02:37:13.996Z,13.03
2023-05-09T02:39:41.096Z,13.00
2023-05-09T02:42:19.478Z,12.97
2023-05-09T02:44:46.371Z,12.93
2023-05-09T02:47:13.186Z,12.83
2023-05-09T02:49:39.979Z,12.88
2023-05-09T02:52:06.845Z,12.87
2023-05-09T02:54:33.713Z,12.76
2023-05-09T02:57:00.630Z,12.70
2023-05-09T02:59:27.546Z,12.64
2023-05-09T03:01:54.651Z,12.67
2023-05-09T03:04:21.611Z,12.68
2023-05-09T03:06:48.453Z,12.68
2023-05-09T03:09:15.560Z,12.69
2023-05-09T03:11:42.363Z,12.60
2023-05-09T03:14:10.678Z,12.58
2023-05-09T03:16:37.708Z,12.62
2023-05-09T03:19:04.515Z,12.63
2023-05-09T03:21:32.036Z,12.62
2023-05-09T03:23:59.168Z,12.60
2023-05-09T03:26:26.546Z,12.57
2023-05-09T03:28:53.419Z,12.50
2023-05-09T03:31:20.350Z,12.55
2023-05-09T03:33:47.427Z,12.56
2023-05-09T03:36:14.718Z,12.49
2023-05-09T03:38:41.515Z,12.53
2023-05-09T03:41:08.310Z,12.45
2023-05-09T03:43:35.133Z,12.47
2023-05-09T03:46:02.002Z,12.48
2023-05-09T03:48:28.780Z,12.48
2023-05-09T03:50:55.725Z,12.45
2023-05-09T03:53:23.200Z,12.43
2023-05-09T03:55:50.296Z,12.43
2023-05-09T03:58:19.220Z,12.44
2023-05-09T04:00:46.269Z,12.40
2023-05-09T04:03:13.259Z,12.39
2023-05-09T04:05:40.532Z,12.42
2023-05-09T04:08:07.458Z,12.45
2023-05-09T04:10:34.295Z,12.50
2023-05-09T04:13:01.236Z,12.53
2023-05-09T04:15:28.115Z,12.55
2023-05-09T04:17:54.954Z,12.49
2023-05-09T04:20:21.886Z,12.45
2023-05-09T04:22:48.660Z,12.41
2023-05-09T04:25:17.071Z,12.52
2023-05-09T04:27:44.030Z,12.45
2023-05-09T04:30:12.216Z,12.56
2023-05-09T04:32:39.154Z,12.64
2023-05-09T04:35:08.122Z,12.67
2023-05-09T04:37:35.075Z,12.67
2023-05-09T04:40:02.148Z,12.59
2023-05-09T04:42:28.995Z,12.62
2023-05-09T04:44:55.863Z,12.65
2023-05-09T04:47:22.715Z,12.80
2023-05-09T04:49:49.581Z,12.94
2023-05-09T04:52:16.753Z,12.90
2023-05-09T04:54:43.600Z,13.09
2023-05-09T04:57:17.877Z,13.18
2023-05-09T04:59:46.073Z,13.20
2023-05-09T05:02:12.957Z,13.30
2023-05-09T05:04:39.912Z,13.33
2023-05-09T05:07:06.825Z,13.43
2023-05-09T05:09:33.670Z,13.38
2023-05-09T05:12:03.028Z,13.46
2023-05-09T05:14:31.266Z,13.55
2023-05-09T05:16:58.725Z,13.42
2023-05-09T05:19:25.692Z,13.65
2023-05-09T05:21:52.576Z,13.52
2023-05-09T05:24:19.408Z,13.98
2023-05-09T05:26:46.358Z,14.09
2023-05-09T05:29:13.138Z,14.00
2023-05-09T05:31:40.057Z,14.10
2023-05-09T05:34:06.956Z,14.31
2023-05-09T05:36:33.741Z,14.33
2023-05-09T05:39:00.590Z,14.46
2023-05-09T05:41:27.529Z,14.42
2023-05-09T05:43:54.673Z,14.53
2023-05-09T05:46:21.625Z,14.73
2023-05-09T05:48:48.500Z,14.71
2023-05-09T05:51:15.349Z,14.61
2023-05-09T05:53:42.725Z,14.95
2023-05-09T05:56:09.568Z,14.95
2023-05-09T05:58:36.372Z,15.27
2023-05-09T06:01:03.242Z,15.45
2023-05-09T06:03:30.848Z,15.44
2023-05-09T06:05:57.930Z,15.71
2023-05-09T06:08:24.748Z,16.24
2023-05-09T06:10:52.703Z,16.54
2023-05-09T06:13:19.680Z,16.59
2023-05-09T06:15:46.732Z,16.50
2023-05-09T06:18:13.731Z,16.34
2023-05-09T06:20:40.820Z,16.61
2023-05-09T06:23:07.724Z,16.81
2023-05-09T06:25:34.536Z,16.74
2023-05-09T06:28:01.426Z,16.60
2023-05-09T06:30:28.341Z,16.98
2023-05-09T06:32:55.708Z,16.96
2023-05-09T06:35:22.576Z,17.31
2023-05-09T06:37:49.960Z,17.33
2023-05-09T06:40:17.256Z,17.86
2023-05-09T06:42:44.747Z,18.03
2023-05-09T06:45:12.053Z,18.36
2023-05-09T06:47:39.003Z,18.45
2023-05-09T06:50:06.801Z,18.02
2023-05-09T06:52:33.618Z,18.33
2023-05-09T06:55:00.499Z,18.48
2023-05-09T06:57:27.289Z,18.88
2023-05-09T06:59:54.151Z,18.81
2023-05-09T07:02:20.953Z,18.78
2023-05-09T07:04:47.892Z,18.91
2023-05-09T07:07:14.687Z,18.92
2023-05-09T07:09:41.524Z,19.03
2023-05-09T07:12:08.649Z,19.15
2023-05-09T07:14:35.720Z,19.64
2023-05-09T07:17:18.243Z,20.25
2023-05-09T07:19:48.508Z,20.42
2023-05-09T07:22:15.413Z,20.44
2023-05-09T07:24:44.190Z,20.47
2023-05-09T07:27:11.012Z,20.37
2023-05-09T07:29:37.936Z,21.01
2023-05-09T07:32:05.028Z,20.77
2023-05-09T07:34:31.856Z,20.76
2023-05-09T07:36:58.753Z,20.29
2023-05-09T07:39:25.679Z,20.72
2023-05-09T07:41:52.526Z,20.68
2023-05-09T07:44:19.352Z,20.52
2023-05-09T07:46:46.127Z,20.64
2023-05-09T07:49:12.961Z,20.28
2023-05-09T07:51:39.762Z,20.70
2023-05-09T07:54:07.025Z,20.48
2023-05-09T07:56:33.853Z,20.56
2023-05-09T07:59:00.833Z,20.90
2023-05-09T08:01:27.695Z,20.65
2023-05-09T08:03:54.774Z,20.28
2023-05-09T08:06:21.666Z,20.67
2023-05-09T08:08:48.560Z,20.24
2023-05-09T08:11:15.469Z,20.64
2023-05-09T08:13:42.259Z,20.70
2023-05-09T08:16:09.194Z,20.48
2023-05-09T08:18:36.062Z,19.96
2023-05-09T08:21:02.971Z,20.62
2023-05-09T08:23:30.365Z,20.11
2023-05-09T08:25:57.343Z,20.43
2023-05-09T08:28:24.377Z,20.44
2023-05-09T08:30:52.155Z,20.79
2023-05-09T08:33:19.215Z,20.54
2023-05-09T08:35:51.047Z,20.26
2023-05-09T08:38:17.917Z,20.52
2023-05-09T08:40:44.772Z,20.38
2023-05-09T08:43:13.311Z,20.62
2023-05-09T08:45:48.465Z,20.69
2023-05-09T08:48:18.875Z,20.77
2023-05-09T08:50:45.783Z,20.54
2023-05-09T08:53:13.790Z,20.47
2023-05-09T08:55:41.664Z,20.48
2023-05-09T08:58:09.871Z,20.73
2023-05-09T09:00:40.517Z,21.04
2023-05-09T09:03:07.693Z,20.74
2023-05-09T09:05:41.716Z,20.53
2023-05-09T09:08:10.222Z,20.30
2023-05-09T09:10:47.233Z,20.80
2023-05-09T09:13:15.489Z,20.95
2023-05-09T09:15:46.356Z,21.52
2023-05-09T09:18:22.332Z,21.56
2023-05-09T09:20:57.850Z,20.82
2023-05-09T09:23:26.522Z,21.43
2023-05-09T09:26:06.775Z,21.34
2023-05-09T09:28:34.022Z,21.08
2023-05-09T09:31:01.322Z,21.66
2023-05-09T09:33:29.725Z,21.63
2023-05-09T09:35:57.395Z,22.05
2023-05-09T09:38:25.157Z,22.06
2023-05-09T09:40:51.955Z,22.05
2023-05-09T09:43:19.591Z,22.31
2023-05-09T09:45:51.443Z,22.54
2023-05-09T09:48:18.457Z,22.91
2023-05-09T09:50:48.260Z,23.75
2023-05-09T09:53:15.133Z,23.19
2023-05-09T09:55:56.394Z,23.58
2023-05-09T09:58:25.143Z,22.85
2023-05-09T10:01:13.979Z,23.35
2023-05-09T10:03:45.909Z,23.63
2023-05-09T10:06:17.386Z,23.39
2023-05-09T10:08:49.366Z,23.52
2023-05-09T10:11:16.422Z,22.92
2023-05-09T10:13:44.585Z,23.06
2023-05-09T10:16:12.989Z,23.22
2023-05-09T10:18:42.762Z,23.41
2023-05-09T10:21:14.725Z,23.56
2023-05-09T10:23:47.157Z,23.10
2023-05-09T10:26:27.257Z,24.10
2023-05-09T10:28:57.225Z,23.65
2023-05-09T10:31:29.011Z,23.65
2023-05-09T10:33:56.422Z,23.46
2023-05-09T10:36:24.012Z,23.80
2023-05-09T10:38:55.493Z,24.06
2023-05-09T10:41:23.668Z,24.24
2023-05-09T10:43:51.086Z,24.82
2023-05-09T10:46:18.542Z,24.19
2023-05-09T10:48:46.420Z,24.55
2023-05-09T10:51:13.881Z,24.54
2023-05-09T10:53:51.469Z,24.54
2023-05-09T10:56:33.204Z,24.95
2023-05-09T10:59:00.701Z,25.66
2023-05-09T11:01:39.416Z,25.52
2023-05-09T11:04:11.044Z,25.05
2023-05-09T11:06:49.392Z,25.39
2023-05-09T11:09:42.756Z,26.03
2023-05-09T11:12:14.872Z,26.07
2023-05-09T11:14:51.655Z,26.53
2023-05-09T11:17:21.747Z,26.40
2023-05-09T11:19:49.122Z,26.58
2023-05-09T11:22:24.598Z,26.67
2023-05-09T11:25:01.367Z,25.79
2023-05-09T11:27:29.418Z,26.11
2023-05-09T11:29:59.302Z,26.28
2023-05-09T11:32:40.297Z,25.54
2023-05-09T11:35:15.665Z,26.00
2023-05-09T11:38:00.138Z,25.91
2023-05-09T11:40:28.726Z,26.80
2023-05-09T11:42:58.848Z,26.87
2023-05-09T11:45:32.281Z,26.20
2023-05-09T11:48:00.486Z,26.86
2023-05-09T11:50:27.420Z,26.71
2023-05-09T11:52:54.736Z,25.77
2023-05-09T11:55:23.027Z,25.73
2023-05-09T11:57:53.662Z,26.34
2023-05-09T12:00:23.572Z,27.13
2023-05-09T12:02:51.720Z,27.44
2023-05-09T12:05:21.704Z,27.89
2023-05-09T12:07:48.993Z,27.95
2023-05-09T12:10:19.783Z,28.74
2023-05-09T12:12:49.413Z,28.40
2023-05-09T12:15:17.508Z,27.99
2023-05-09T12:17:47.273Z,28.13
2023-05-09T12:20:14.611Z,27.35
2023-05-09T12:22:43.853Z,27.73
2023-05-09T12:25:12.298Z,27.70
2023-05-09T12:27:42.184Z,27.24
2023-05-09T12:30:15.893Z,27.91
2023-05-09T12:32:43.610Z,27.88
2023-05-09T12:35:11.152Z,28.06
2023-05-09T12:37:38.828Z,27.23
2023-05-09T12:40:12.529Z,27.35
2023-05-09T12:42:43.613Z,27.80
2023-05-09T12:45:11.382Z,28.28
2023-05-09T12:47:47.322Z,28.40
2023-05-09T12:50:14.329Z,28.79
2023-05-09T12:53:02.089Z,29.24
2023-05-09T12:55:31.147Z,28.37
2023-05-09T12:58:03.423Z,28.78
2023-05-09T13:00:45.026Z,28.09
2023-05-09T13:03:27.337Z,28.61
2023-05-09T13:06:01.172Z,27.95
2023-05-09T13:08:29.133Z,27.86
2023-05-09T13:11:08.000Z,27.37
2023-05-09T13:13:42.527Z,27.56
2023-05-09T13:16:11.142Z,27.58
2023-05-09T13:18:39.595Z,28.18
2023-05-09T13:21:06.664Z,27.72
2023-05-09T13:23:33.495Z,28.05
2023-05-09T13:26:00.418Z,27.71
2023-05-09T13:28:27.233Z,28.49
2023-05-09T13:30:54.104Z,28.33
2023-05-09T13:35:51.549Z,28.11
2023-05-09T13:38:18.381Z,29.13
2023-05-09T13:40:45.222Z,29.11
2023-05-09T13:43:12.027Z,29.43
2023-05-09T13:45:39.146Z,29.00
2023-05-09T13:48:06.304Z,29.04
2023-05-09T13:50:33.852Z,28.33
2023-05-09T13:53:00.739Z,28.83
2023-05-09T13:55:27.712Z,28.85
2023-05-09T13:57:54.850Z,29.13
2023-05-09T14:00:22.338Z,30.20
2023-05-09T14:02:49.283Z,30.37
2023-05-09T14:05:16.902Z,29.85
2023-05-09T14:07:45.017Z,29.25
2023-05-09T14:10:12.958Z,29.17
2023-05-09T14:12:40.733Z,28.66
2023-05-09T14:15:08.622Z,28.61
2023-05-09T14:17:35.758Z,28.69
2023-05-09T14:20:02.687Z,29.67
2023-05-09T14:22:29.505Z,29.47
2023-05-09T14:24:58.992Z,29.26
2023-05-09T14:27:26.275Z,30.01
2023-05-09T14:29:53.270Z,29.75
2023-05-09T14:32:20.946Z,29.93
2023-05-09T14:34:51.594Z,30.30
2023-05-09T14:37:18.380Z,29.09
2023-05-09T14:39:45.476Z,30.60
2023-05-09T14:42:14.196Z,30.83
2023-05-09T14:44:41.946Z,31.08
2023-05-09T14:47:09.985Z,31.82
2023-05-09T14:49:37.824Z,31.83
2023-05-09T14:52:04.778Z,31.59
2023-05-09T14:54:31.681Z,31.07
2023-05-09T14:56:59.512Z,31.28
2023-05-09T14:59:26.361Z,31.73
2023-05-09T15:01:53.620Z,32.58
2023-05-09T15:04:20.549Z,32.02
2023-05-09T15:06:47.435Z,32.38
2023-05-09T15:09:15.476Z,32.86
2023-05-09T15:11:48.272Z,33.08
2023-05-09T15:14:16.797Z,33.06
2023-05-09T15:16:44.141Z,32.28
2023-05-09T15:19:11.132Z,30.62
2023-05-09T15:21:38.040Z,30.97
2023-05-09T15:24:05.495Z,30.20
2023-05-09T15:26:32.578Z,30.20
2023-05-09T15:28:59.588Z,29.62
2023-05-09T15:31:26.654Z,30.24
2023-05-09T15:33:53.632Z,29.46
2023-05-09T15:36:20.444Z,29.40
2023-05-09T15:38:49.358Z,28.56
2023-05-09T15:41:16.701Z,27.51
2023-05-09T15:43:43.540Z,27.29
2023-05-09T15:46:10.524Z,27.24
2023-05-09T15:48:37.493Z,26.98
2023-05-09T15:51:04.494Z,26.63
2023-05-09T15:53:31.809Z,25.98
2023-05-09T15:55:58.674Z,26.06
2023-05-09T15:58:25.644Z,26.20
2023-05-09T16:00:52.603Z,25.69
2023-05-09T16:03:19.879Z,26.28
2023-05-09T16:05:46.948Z,26.32
2023-05-09T16:08:14.459Z,26.14
2023-05-09T16:10:41.308Z,26.45
2023-05-09T16:13:08.292Z,25.94
2023-05-09T16:15:35.344Z,25.65
2023-05-09T16:18:02.221Z,25.58
2023-05-09T16:20:29.058Z,25.74
2023-05-09T16:22:55.959Z,25.94
2023-05-09T16:25:22.992Z,25.72
2023-05-09T16:27:50.229Z,25.16
2023-05-09T16:30:17.713Z,25.38
2023-05-09T16:32:45.089Z,25.01
2023-05-09T16:35:12.470Z,25.28
2023-05-09T16:37:39.650Z,25.06
2023-05-09T16:40:07.146Z,25.21
2023-05-09T16:42:34.069Z,25.18
2023-05-09T16:45:00.943Z,25.06
2023-05-09T16:47:27.805Z,24.99
2023-05-09T16:49:54.591Z,24.28
2023-05-09T16:52:23.054Z,24.61
2023-05-09T16:54:50.533Z,24.43
2023-05-09T16:57:17.341Z,24.35
2023-05-09T16:59:44.126Z,24.35
2023-05-09T17:02:11.059Z,24.50
2023-05-09T17:04:38.088Z,24.19
2023-05-09T17:07:04.996Z,24.17
2023-05-09T17:09:32.365Z,23.84
2023-05-09T17:12:00.538Z,24.00
2023-05-09T17:14:27.503Z,24.13
2023-05-09T17:16:54.566Z,23.87
2023-05-09T17:19:23.456Z,23.90
2023-05-09T17:21:50.632Z,23.79
2023-05-09T17:24:17.982Z,23.81
2023-05-09T17:26:44.890Z,23.67
2023-05-09T17:29:11.738Z,23.74
2023-05-09T17:31:38.571Z,23.71
2023-05-09T17:34:05.723Z,23.19
2023-05-09T17:36:33.644Z,23.14
2023-05-09T17:39:00.835Z,23.04
2023-05-09T17:41:27.890Z,23.17
2023-05-09T17:43:57.274Z,23.30
2023-05-09T17:46:24.846Z,22.99
2023-05-09T17:48:51.860Z,22.98
2023-05-09T17:51:18.867Z,22.87
2023-05-09T17:53:46.716Z,22.94
2023-05-09T17:56:13.611Z,22.80
2023-05-09T17:58:40.511Z,22.67
2023-05-09T18:01:07.595Z,22.60
2023-05-09T18:03:34.645Z,22.46
2023-05-09T18:06:01.787Z,22.29
2023-05-09T18:08:29.792Z,22.31
2023-05-09T18:10:57.247Z,22.21
2023-05-09T18:13:24.228Z,22.16
2023-05-09T18:15:51.385Z,22.00
2023-05-09T18:18:18.462Z,22.01
2023-05-09T18:20:47.026Z,21.94
2023-05-09T18:23:14.796Z,21.78
2023-05-09T18:25:42.078Z,21.77
2023-05-09T18:28:09.379Z,21.73
2023-05-09T18:30:36.480Z,21.60
2023-05-09T18:33:03.702Z,21.33
2023-05-09T18:35:31.587Z,21.45
2023-05-09T18:37:58.413Z,21.43
2023-05-09T18:40:25.204Z,21.48
2023-05-09T18:42:52.128Z,21.40
2023-05-09T18:45:18.945Z,21.25
2023-05-09T18:47:45.811Z,21.08
2023-05-09T18:50:13.943Z,21.07
2023-05-09T18:52:40.930Z,21.18
2023-05-09T18:55:08.326Z,21.30
2023-05-09T18:57:35.181Z,21.01
2023-05-09T19:00:02.093Z,21.02
2023-05-09T19:02:30.096Z,20.82
2023-05-09T19:04:57.082Z,21.06
2023-05-09T19:07:24.196Z,21.05
2023-05-09T19:09:51.314Z,20.91
2023-05-09T19:12:19.183Z,20.94
2023-05-09T19:14:46.091Z,20.70
2023-05-09T19:17:12.988Z,20.79
2023-05-09T19:19:39.905Z,20.68
2023-05-09T19:22:07.125Z,20.59
2023-05-09T19:24:34.421Z,20.61
2023-05-09T19:27:01.488Z,20.77
2023-05-09T19:29:28.581Z,20.72
2023-05-09T19:31:55.865Z,20.77
2023-05-09T19:34:22.824Z,20.81
2023-05-09T19:36:49.844Z,20.65
2023-05-09T19:39:17.236Z,20.65
2023-05-09T19:41:44.133Z,20.70
2023-05-09T19:44:11.468Z,20.52
2023-05-09T19:46:42.861Z,20.58
2023-05-09T19:51:43.244Z,20.55
2023-05-09T19:54:10.062Z,20.54
2023-05-09T19:56:36.883Z,20.35
2023-05-09T19:59:04.482Z,20.37
2023-05-09T20:01:31.472Z,20.43
2023-05-09T20:03:58.445Z,20.32
2023-05-09T20:06:25.756Z,20.26
2023-05-09T20:08:52.631Z,20.28
2023-05-09T20:11:19.538Z,20.22
2023-05-09T20:13:46.390Z,20.14
2023-05-09T20:16:13.438Z,20.07
2023-05-09T20:18:40.364Z,20.08
2023-05-09T20:21:09.658Z,19.78
2023-05-09T20:23:37.076Z,19.95
2023-05-09T20:26:04.056Z,19.95
2023-05-09T20:28:31.097Z,19.82
2023-05-09T20:30:57.975Z,19.83
2023-05-09T20:33:24.868Z,19.89
2023-05-09T20:35:51.789Z,19.96
2023-05-09T20:38:19.160Z,19.94
2023-05-09T20:40:45.984Z,19.85
2023-05-09T20:43:12.854Z,19.81
2023-05-09T20:45:39.742Z,19.78
2023-05-09T20:48:06.834Z,19.74
2023-05-09T20:50:33.669Z,19.74
2023-05-09T20:53:00.628Z,19.78
2023-05-09T20:55:27.555Z,19.66
2023-05-09T20:57:54.477Z,19.58
2023-05-09T21:00:21.343Z,19.66
2023-05-09T21:02:48.345Z,19.66
2023-05-09T21:05:15.315Z,19.62
2023-05-09T21:07:42.165Z,19.59
2023-05-09T21:10:10.436Z,19.43
2023-05-09T21:12:37.475Z,19.46
2023-05-09T21:15:05.079Z,19.30
2023-05-09T21:17:32.084Z,18.97
2023-05-09T21:19:58.942Z,19.01
2023-05-09T21:22:25.717Z,19.11
2023-05-09T21:24:52.952Z,19.03
2023-05-09T21:27:19.805Z,19.09
2023-05-09T21:29:49.162Z,19.02
2023-05-09T21:32:16.946Z,19.25
2023-05-09T21:34:43.867Z,19.31
2023-05-09T21:37:10.730Z,19.22
2023-05-09T21:39:37.573Z,19.22
2023-05-09T21:42:04.432Z,19.23
2023-05-09T21:44:31.396Z,19.25
2023-05-09T21:46:58.471Z,19.07
2023-05-09T21:49:28.711Z,19.07
2023-05-09T21:51:55.775Z,18.92
2023-05-09T21:54:23.225Z,18.89
2023-05-09T21:56:50.093Z,18.95
2023-05-09T21:59:20.603Z,18.89
2023-05-09T22:01:48.534Z,18.55
2023-05-09T22:04:15.898Z,18.73
2023-05-09T22:06:43.027Z,18.77
2023-05-09T22:09:10.563Z,18.83
2023-05-09T22:11:37.798Z,18.95
2023-05-09T22:14:04.729Z,18.78
2023-05-09T22:16:31.629Z,18.83
2023-05-09T22:18:58.462Z,19.01
2023-05-09T22:21:25.487Z,18.75
2023-05-09T22:23:52.467Z,18.99
2023-05-09T22:26:19.396Z,19.08
2023-05-09T22:28:46.188Z,18.96
2023-05-09T22:31:13.043Z,19.16
2023-05-09T22:33:40.089Z,18.98
2023-05-09T22:36:07.403Z,19.18
2023-05-09T22:38:34.352Z,19.18
2023-05-09T22:41:01.134Z,19.35
2023-05-09T22:43:33.877Z,19.30
2023-05-09T22:46:06.008Z,19.20
2023-05-09T22:48:32.909Z,19.24
2023-05-09T22:50:59.745Z,19.22
2023-05-09T22:53:26.611Z,19.26
2023-05-09T22:55:54.667Z,19.19
2023-05-09T22:58:22.624Z,19.13
2023-05-09T23:00:50.020Z,19.02
2023-05-09T23:03:17.481Z,18.91
2023-05-09T23:05:44.409Z,18.86
2023-05-09T23:08:11.371Z,18.89
2023-05-09T23:10:38.184Z,18.90
2023-05-09T23:13:05.115Z,18.76
2023-05-09T23:15:32.070Z,18.75
2023-05-09T23:17:58.944Z,18.63
2023-05-09T23:20:26.198Z,18.59
2023-05-09T23:22:52.988Z,18.63
2023-05-09T23:25:19.915Z,18.36
2023-05-09T23:27:47.040Z,18.42
2023-05-09T23:30:14.258Z,18.41
2023-05-09T23:32:41.296Z,18.32
2023-05-09T23:35:08.517Z,18.15
2023-05-09T23:37:35.338Z,18.28
2023-05-09T23:40:03.795Z,18.26
2023-05-09T23:42:30.856Z,18.20
2023-05-09T23:44:57.777Z,18.24
2023-05-09T23:47:24.659Z,18.26
2023-05-09T23:49:51.486Z,18.22
2023-05-09T23:52:18.333Z,18.17
2023-05-09T23:54:45.145Z,18.20
2023-05-09T23:57:12.013Z,18.20
2023-05-09T23:59:38.832Z,17.90
